Time;durP1;ratioP1;P1;durP2;ratioP2;P2;SDS_P1;SDS_P2;PMS_P1;PMS_P2;Temp;Humidity;BMP_temperature;BMP_pressure;BME280_temperature;BME280_humidity;BME280_pressure;Samples;Min_cycle;Max_cycle;Signal;HPM_P1;HPM_P2
2022/10/15 00:01:10;;;;;;;2.20;1.60;;;19.90;57.70;;;;;;6266195;28;20078;-68
2022/10/15 00:04:11;;;;;;;2.10;1.60;;;19.90;57.60;;;;;;6265841;28;20017;-68
2022/10/15 00:07:12;;;;;;;2.33;1.60;;;19.90;57.60;;;;;;6265554;28;20132;-69
2022/10/15 00:10:13;;;;;;;1.63;1.40;;;19.90;57.70;;;;;;6265816;28;20017;-69
2022/10/15 00:13:13;;;;;;;2.00;1.60;;;19.90;57.60;;;;;;6265535;28;20059;-68
2022/10/15 00:16:19;;;;;;;1.42;1.25;;;19.90;57.70;;;;;;6265460;28;20029;-68
2022/10/15 00:19:19;;;;;;;;;;;19.90;57.70;;;;;;6266352;28;20048;-69
2022/10/15 00:22:20;;;;;;;1.52;1.30;;;19.90;57.70;;;;;;6264343;28;19946;-69
2022/10/15 00:25:20;;;;;;;2.80;1.50;;;19.90;57.70;;;;;;6265695;28;20025;-68
2022/10/15 00:28:21;;;;;;;1.85;1.40;;;19.90;57.70;;;;;;6267511;28;20106;-68
2022/10/15 00:31:25;;;;;;;1.63;1.40;;;19.90;57.70;;;;;;6269330;28;20517;-69
2022/10/15 00:34:26;;;;;;;1.45;1.35;;;19.90;57.70;;;;;;6270625;28;20036;-69
2022/10/15 00:37:27;;;;;;;2.20;1.70;;;19.90;57.70;;;;;;6270792;28;20020;-68
2022/10/15 00:40:27;;;;;;;1.77;1.40;;;19.90;57.70;;;;;;6270571;28;20021;-68
2022/10/15 00:43:37;;;;;;;1.80;1.50;;;19.90;57.70;;;;;;6270351;28;20679;-69
2022/10/15 00:46:41;;;;;;;3.47;1.40;;;19.90;57.70;;;;;;6270448;28;20137;-69
2022/10/15 00:49:47;;;;;;;1.58;1.48;;;19.90;57.70;;;;;;6270505;28;20037;-68
2022/10/15 00:52:57;;;;;;;1.80;1.50;;;19.90;57.70;;;;;;6269912;28;20021;-69
2022/10/15 00:55:59;;;;;;;1.98;1.75;;;19.90;57.70;;;;;;6270053;28;20061;-68
2022/10/15 00:59:00;;;;;;;1.90;1.70;;;19.90;57.70;;;;;;6268543;28;20060;-69
2022/10/15 01:02:01;;;;;;;1.80;1.60;;;19.90;57.80;;;;;;6270080;28;20071;-69
2022/10/15 01:05:03;;;;;;;1.63;1.50;;;19.90;57.70;;;;;;6269836;28;20147;-69
2022/10/15 01:08:04;;;;;;;1.75;1.40;;;19.90;57.70;;;;;;6269898;28;20100;-68
2022/10/15 01:11:14;;;;;;;1.65;1.40;;;19.90;57.70;;;;;;6269666;28;20021;-69
2022/10/15 01:14:27;;;;;;;2.00;1.40;;;19.90;57.70;;;;;;6269500;28;20688;-68
2022/10/15 01:18:19;;;;;;;2.38;1.60;;;19.90;57.70;;;;;;6269706;28;20028;-68
2022/10/15 01:21:55;;;;;;;1.95;1.50;;;19.90;57.70;;;;;;6243619;28;20041;-69
2022/10/15 01:25:03;;;;;;;2.38;1.67;;;19.90;57.80;;;;;;6262866;28;20037;-69
2022/10/15 01:28:34;;;;;;;2.13;1.52;;;19.90;57.70;;;;;;6269888;28;20669;-70
2022/10/15 01:32:02;;;;;;;1.70;1.48;;;19.90;57.80;;;;;;6269601;28;20024;-69
2022/10/15 01:35:35;;;;;;;1.60;1.50;;;19.90;57.70;;;;;;6268941;28;20025;-69
2022/10/15 01:38:46;;;;;;;1.83;1.55;;;19.90;57.70;;;;;;6246712;28;20029;-68
2022/10/15 01:41:52;;;;;;;2.20;1.65;;;19.90;57.80;;;;;;6267111;28;20506;-69
2022/10/15 01:44:58;;;;;;;1.92;1.58;;;19.90;57.80;;;;;;6268810;28;20108;-69
2022/10/15 01:48:03;;;;;;;1.73;1.50;;;19.90;57.80;;;;;;6267806;28;20017;-68
2022/10/15 01:51:05;;;;;;;1.98;1.50;;;19.90;57.80;;;;;;6269048;28;20096;-69
2022/10/15 01:54:11;;;;;;;2.33;1.88;;;19.90;57.70;;;;;;6268870;28;20052;-68
2022/10/15 01:57:12;;;;;;;1.98;1.58;;;19.90;57.70;;;;;;6268701;28;20021;-68
2022/10/15 02:00:14;;;;;;;1.42;1.23;;;19.90;57.70;;;;;;6268580;28;20033;-69
2022/10/15 02:03:15;;;;;;;1.77;1.58;;;19.90;57.70;;;;;;6268871;28;20025;-69
2022/10/15 02:06:21;;;;;;;1.52;1.40;;;19.90;57.70;;;;;;6268073;28;20040;-68
2022/10/15 02:09:41;;;;;;;1.42;1.33;;;19.90;57.80;;;;;;6268661;28;20046;-69
2022/10/15 02:13:09;;;;;;;1.95;1.58;;;19.90;57.70;;;;;;6268519;28;20100;-69
2022/10/15 02:16:27;;;;;;;2.20;1.50;;;19.90;57.70;;;;;;6268191;28;20158;-69
2022/10/15 02:19:51;;;;;;;3.53;1.52;;;19.90;57.70;;;;;;6268580;28;20047;-69
2022/10/15 02:23:01;;;;;;;2.10;1.70;;;19.90;57.70;;;;;;6268148;28;20025;-68
2022/10/15 02:26:06;;;;;;;1.33;1.23;;;19.90;57.80;;;;;;6268534;28;20036;-68
2022/10/15 02:29:15;;;;;;;1.27;1.17;;;19.90;57.80;;;;;;6266449;28;20119;-69
2022/10/15 02:32:19;;;;;;;2.08;1.70;;;19.90;57.80;;;;;;6268045;28;20047;-69
2022/10/15 02:35:21;;;;;;;1.25;1.10;;;19.90;57.70;;;;;;6267884;28;20601;-69
2022/10/15 02:38:24;;;;;;;2.10;1.50;;;19.90;57.80;;;;;;6266679;28;20060;-69
2022/10/15 02:41:28;;;;;;;1.58;1.42;;;19.90;57.80;;;;;;6267686;28;20033;-68
2022/10/15 02:44:29;;;;;;;2.00;1.70;;;19.90;57.80;;;;;;6267660;28;20033;-69
2022/10/15 02:47:30;;;;;;;2.55;1.42;;;19.90;57.80;;;;;;6266247;28;20024;-69
2022/10/15 02:50:31;;;;;;;2.25;1.60;;;19.90;57.80;;;;;;6267153;28;20041;-69
2022/10/15 02:53:32;;;;;;;2.38;1.60;;;19.90;57.80;;;;;;6267486;28;20029;-69
2022/10/15 02:56:33;;;;;;;1.77;1.60;;;19.90;57.80;;;;;;6266899;28;20016;-69
2022/10/15 02:59:34;;;;;;;2.22;1.65;;;19.90;57.80;;;;;;6267425;28;20057;-69
2022/10/15 03:02:35;;;;;;;1.35;1.25;;;19.90;57.80;;;;;;6267315;28;20017;-68
2022/10/15 03:05:36;;;;;;;1.27;1.17;;;19.90;57.80;;;;;;6266970;28;20033;-69
2022/10/15 03:08:36;;;;;;;1.48;1.30;;;19.90;57.70;;;;;;6266054;28;20059;-69
2022/10/15 03:11:37;;;;;;;1.35;1.25;;;19.90;57.80;;;;;;6267010;28;20482;-69
2022/10/15 03:14:38;;;;;;;1.40;1.30;;;19.90;57.80;;;;;;6266852;28;20029;-69
2022/10/15 03:17:39;;;;;;;3.58;1.70;;;19.90;57.80;;;;;;6267078;28;20031;-68
2022/10/15 03:20:40;;;;;;;1.88;1.65;;;19.90;57.80;;;;;;6266923;28;20067;-69
2022/10/15 03:23:41;;;;;;;9.23;1.70;;;19.90;57.80;;;;;;6266901;28;20024;-69
2022/10/15 03:26:41;;;;;;;1.75;1.48;;;19.90;57.80;;;;;;6265331;28;20048;-69
2022/10/15 03:29:42;;;;;;;1.65;1.42;;;19.90;57.90;;;;;;6266414;28;20656;-69
2022/10/15 03:32:43;;;;;;;1.20;1.10;;;19.90;57.90;;;;;;6266983;28;20032;-69
2022/10/15 03:35:44;;;;;;;1.45;1.35;;;19.90;57.80;;;;;;6266416;28;20552;-69
2022/10/15 03:38:45;;;;;;;1.83;1.50;;;19.90;57.80;;;;;;6266576;28;20103;-69
2022/10/15 03:41:46;;;;;;;1.90;1.58;;;19.90;57.80;;;;;;6266293;28;20025;-68
2022/10/15 03:44:46;;;;;;;1.50;1.40;;;19.90;57.80;;;;;;6261984;28;20425;-69
2022/10/15 03:47:47;;;;;;;1.40;1.30;;;19.90;57.80;;;;;;6262250;28;20029;-69
2022/10/15 03:50:48;;;;;;;1.70;1.38;;;19.90;57.80;;;;;;6266303;28;20554;-69
2022/10/15 03:53:49;;;;;;;1.98;1.55;;;19.90;57.80;;;;;;6266116;28;20035;-68
2022/10/15 03:56:50;;;;;;;1.42;1.23;;;19.90;57.80;;;;;;6265782;28;20025;-69
2022/10/15 03:59:51;;;;;;;2.20;1.27;;;19.90;57.80;;;;;;6266294;28;20114;-69
2022/10/15 04:02:52;;;;;;;2.33;1.40;;;19.90;57.80;;;;;;6263991;28;20037;-69
2022/10/15 04:05:53;;;;;;;1.88;1.42;;;19.90;57.80;;;;;;6265767;28;20097;-68
2022/10/15 04:08:54;;;;;;;1.75;1.40;;;19.90;57.90;;;;;;6266096;28;20067;-69
2022/10/15 04:11:54;;;;;;;1.50;1.30;;;19.90;57.90;;;;;;6265946;28;20021;-69
2022/10/15 04:14:55;;;;;;;2.00;1.58;;;19.90;57.80;;;;;;6265749;28;20049;-68
2022/10/15 04:17:55;;;;;;;1.92;1.45;;;19.90;57.90;;;;;;6265509;28;20514;-69
2022/10/15 04:21:00;;;;;;;1.90;1.48;;;19.90;58.00;;;;;;6266002;28;20108;-69
2022/10/15 04:24:00;;;;;;;1.77;1.40;;;19.90;57.80;;;;;;6265675;28;20044;-69
2022/10/15 04:27:01;;;;;;;1.42;1.20;;;19.90;57.90;;;;;;6265201;28;20028;-69
2022/10/15 04:30:02;;;;;;;2.25;1.30;;;19.90;57.80;;;;;;6265391;28;20029;-69
2022/10/15 04:33:03;;;;;;;2.20;1.50;;;19.90;57.80;;;;;;6265611;28;20390;-68
2022/10/15 04:36:07;;;;;;;1.48;1.27;;;19.90;57.80;;;;;;6265191;28;20024;-69
2022/10/15 04:39:07;;;;;;;1.85;1.45;;;19.90;57.80;;;;;;6264250;28;20039;-68
2022/10/15 04:42:08;;;;;;;1.52;1.30;;;19.90;57.80;;;;;;6265415;28;20025;-69
2022/10/15 04:45:09;;;;;;;1.48;1.30;;;19.90;57.80;;;;;;6265072;28;20104;-69
2022/10/15 04:48:10;;;;;;;1.50;1.30;;;19.90;57.90;;;;;;6265144;28;20374;-69
2022/10/15 04:51:15;;;;;;;2.17;1.40;;;19.90;58.00;;;;;;6265331;28;20063;-72
2022/10/15 04:54:16;;;;;;;1.80;1.45;;;19.90;57.90;;;;;;6264356;28;20021;-70
2022/10/15 04:57:17;;;;;;;2.22;1.50;;;19.90;57.90;;;;;;6265185;28;20527;-72
2022/10/15 05:00:37;;;;;;;1.85;1.30;;;19.90;57.90;;;;;;6264252;28;20045;-71
2022/10/15 05:03:39;;;;;;;1.80;1.45;;;19.90;57.90;;;;;;6260192;28;20471;-71
2022/10/15 05:06:40;;;;;;;1.60;1.30;;;19.90;57.90;;;;;;6264337;28;20022;-71
2022/10/15 05:09:40;;;;;;;1.85;1.38;;;19.90;57.90;;;;;;6264297;28;20795;-71
2022/10/15 05:12:41;;;;;;;1.23;1.13;;;19.90;57.90;;;;;;6264240;28;20031;-71
2022/10/15 05:15:42;;;;;;;1.52;1.42;;;19.90;57.90;;;;;;6269251;28;20035;-72
2022/10/15 05:18:45;;;;;;;1.90;1.55;;;19.90;57.90;;;;;;6268746;28;20025;-71
2022/10/15 05:21:45;;;;;;;2.20;1.58;;;19.90;57.90;;;;;;6269992;28;20025;-72
2022/10/15 05:24:47;;;;;;;1.83;1.30;;;19.80;57.80;;;;;;6269642;28;20090;-69
2022/10/15 05:27:47;;;;;;;1.95;1.40;;;19.90;57.90;;;;;;6268496;28;20614;-71
2022/10/15 05:30:48;;;;;;;1.35;1.25;;;19.90;57.90;;;;;;6268441;28;20025;-71
2022/10/15 05:33:51;;;;;;;1.58;1.25;;;19.90;57.90;;;;;;6268363;28;20142;-69
2022/10/15 05:36:51;;;;;;;1.80;1.38;;;19.90;57.90;;;;;;6269261;28;20078;-71
2022/10/15 05:39:52;;;;;;;1.80;1.45;;;19.90;58.00;;;;;;6269821;28;20029;-70
2022/10/15 05:42:53;;;;;;;1.55;1.45;;;19.90;58.00;;;;;;6269275;28;20616;-71
2022/10/15 05:45:54;;;;;;;1.30;1.20;;;19.90;57.90;;;;;;6255818;28;20071;-71
2022/10/15 05:48:56;;;;;;;1.25;1.15;;;19.90;57.90;;;;;;6256673;28;20045;-71
2022/10/15 05:51:57;;;;;;;1.55;1.20;;;19.90;57.90;;;;;;6269078;28;20025;-71
2022/10/15 05:54:58;;;;;;;1.45;1.17;;;19.90;57.90;;;;;;6268969;28;20044;-71
2022/10/15 05:58:02;;;;;;;1.42;1.20;;;19.90;57.90;;;;;;6268879;28;20397;-70
2022/10/15 06:01:05;;;;;;;1.15;1.05;;;19.90;57.90;;;;;;6268985;28;20075;-71
2022/10/15 06:04:06;;;;;;;1.83;1.35;;;19.90;57.90;;;;;;6269026;28;20119;-70
2022/10/15 06:07:07;;;;;;;1.30;1.20;;;19.90;57.90;;;;;;6268817;28;20025;-71
2022/10/15 06:10:08;;;;;;;1.50;1.40;;;19.90;57.90;;;;;;6268871;28;20028;-68
2022/10/15 06:13:10;;;;;;;2.53;1.42;;;19.90;57.90;;;;;;6269035;28;20075;-70
2022/10/15 06:16:12;;;;;;;2.28;1.50;;;19.80;57.80;;;;;;6267081;28;20040;-71
2022/10/15 06:19:14;;;;;;;1.85;1.40;;;19.90;58.00;;;;;;6268681;28;20032;-71
2022/10/15 06:22:14;;;;;;;1.17;1.08;;;19.90;57.90;;;;;;6259405;28;20029;-71
2022/10/15 06:25:15;;;;;;;1.45;1.30;;;19.90;57.90;;;;;;6243418;28;20028;-69
2022/10/15 06:28:16;;;;;;;1.23;1.10;;;19.90;57.90;;;;;;6246682;28;20029;-70
2022/10/15 06:31:17;;;;;;;1.58;1.38;;;19.90;57.90;;;;;;6266825;28;20021;-70
2022/10/15 06:34:17;;;;;;;1.52;1.25;;;19.90;57.90;;;;;;6268530;28;20377;-71
2022/10/15 06:37:19;;;;;;;1.98;1.33;;;19.90;57.90;;;;;;6268353;28;20373;-71
2022/10/15 06:40:19;;;;;;;1.63;1.40;;;19.90;57.90;;;;;;6268322;28;20352;-72
2022/10/15 06:43:20;;;;;;;1.55;1.30;;;19.90;58.00;;;;;;6266718;28;20070;-70
2022/10/15 06:46:21;;;;;;;1.63;1.40;;;19.90;57.90;;;;;;6267737;28;20391;-72
2022/10/15 06:49:21;;;;;;;1.73;1.40;;;19.90;57.90;;;;;;6267789;28;20701;-70
2022/10/15 06:52:25;;;;;;;1.48;1.15;;;19.90;57.90;;;;;;6266857;28;20473;-71
2022/10/15 06:55:27;;;;;;;1.33;1.23;;;19.90;57.90;;;;;;6258914;28;20686;-71
2022/10/15 06:58:28;;;;;;;1.50;1.20;;;19.90;57.90;;;;;;6243413;28;20021;-70
2022/10/15 07:01:29;;;;;;;1.13;1.02;;;19.90;57.90;;;;;;6243200;28;20509;-70
2022/10/15 07:04:30;;;;;;;1.27;1.13;;;19.90;58.00;;;;;;6258297;28;20112;-69
2022/10/15 07:07:30;;;;;;;1.52;1.20;;;19.90;58.00;;;;;;6266306;28;20481;-72
2022/10/15 07:10:31;;;;;;;1.85;1.20;;;19.90;58.00;;;;;;6267468;28;20537;-70
2022/10/15 07:13:32;;;;;;;2.63;1.20;;;19.90;58.00;;;;;;6266063;28;20029;-72
2022/10/15 07:16:32;;;;;;;1.17;1.08;;;19.90;57.90;;;;;;6267216;28;20521;-72
2022/10/15 07:19:33;;;;;;;1.58;1.30;;;19.90;58.00;;;;;;6266148;28;20033;-71
2022/10/15 07:22:34;;;;;;;1.55;1.30;;;19.90;58.00;;;;;;6267439;28;20032;-72
2022/10/15 07:25:35;;;;;;;1.92;1.40;;;19.80;57.90;;;;;;6266308;28;20119;-69
2022/10/15 07:28:35;;;;;;;1.33;1.02;;;19.80;57.90;;;;;;6267078;28;20021;-70
2022/10/15 07:31:36;;;;;;;1.67;1.40;;;19.90;57.90;;;;;;6265595;28;20078;-72
2022/10/15 07:34:37;;;;;;;2.20;1.40;;;19.90;57.90;;;;;;6265317;28;20078;-72
2022/10/15 07:37:37;;;;;;;1.17;1.00;;;19.90;57.90;;;;;;6265394;28;20052;-70
2022/10/15 07:40:38;;;;;;;1.30;1.15;;;19.90;57.90;;;;;;6265522;28;20120;-71
2022/10/15 07:43:39;;;;;;;1.80;1.15;;;19.90;57.90;;;;;;6265668;28;20520;-71
2022/10/15 07:46:39;;;;;;;1.88;1.40;;;19.90;57.90;;;;;;6257239;28;20582;-71
2022/10/15 07:49:40;;;;;;;1.02;0.90;;;19.90;57.90;;;;;;6241403;28;20077;-71
2022/10/15 07:52:41;;;;;;;1.73;1.40;;;19.90;57.90;;;;;;6241912;28;20048;-71
2022/10/15 07:55:42;;;;;;;1.40;1.10;;;19.90;58.00;;;;;;6251193;28;20477;-72
2022/10/15 07:58:50;;;;;;;1.27;0.98;;;19.90;58.00;;;;;;6266629;28;20551;-71
2022/10/15 08:01:51;;;;;;;1.38;1.10;;;19.90;57.90;;;;;;6256706;28;20025;-72
2022/10/15 08:04:51;;;;;;;1.33;1.00;;;19.90;57.90;;;;;;6248731;28;20023;-71
2022/10/15 08:07:52;;;;;;;1.13;1.02;;;19.90;58.00;;;;;;6266393;28;20029;-71
2022/10/15 08:10:53;;;;;;;1.17;1.02;;;19.90;57.90;;;;;;6267180;28;20035;-71
2022/10/15 08:13:54;;;;;;;1.10;0.93;;;19.90;57.90;;;;;;6266594;28;20482;-71
2022/10/15 08:16:54;;;;;;;1.38;1.10;;;19.90;58.00;;;;;;6264507;28;20078;-71
2022/10/15 08:19:55;;;;;;;1.00;0.90;;;19.90;58.00;;;;;;6264904;28;20457;-70
2022/10/15 08:22:55;;;;;;;1.70;1.27;;;19.90;58.00;;;;;;6266573;28;20521;-70
2022/10/15 08:25:58;;;;;;;1.27;1.13;;;19.90;58.00;;;;;;6265972;28;20025;-71
2022/10/15 08:28:59;;;;;;;1.08;0.98;;;19.90;58.00;;;;;;6266632;28;20047;-71
2022/10/15 08:31:59;;;;;;;1.80;0.90;;;19.90;58.00;;;;;;6265834;28;20028;-71
2022/10/15 08:35:00;;;;;;;1.23;1.10;;;19.90;58.00;;;;;;6264414;28;20021;-71
2022/10/15 08:38:01;;;;;;;0.88;0.82;;;19.80;57.90;;;;;;6265587;28;20032;-69
2022/10/15 08:41:13;;;;;;;0.80;0.80;;;19.90;58.00;;;;;;6264445;28;20056;-70
2022/10/15 08:44:36;;;;;;;1.13;1.00;;;19.80;58.00;;;;;;6264520;28;20033;-71
2022/10/15 08:47:45;;;;;;;1.10;1.00;;;19.80;58.00;;;;;;6260024;28;20048;-71
2022/10/15 08:51:14;;;;;;;1.10;1.00;;;19.80;57.90;;;;;;6268873;28;20033;-71
2022/10/15 08:54:17;;;;;;;1.27;0.90;;;19.80;57.90;;;;;;6268776;28;20619;-71
2022/10/15 08:57:39;;;;;;;1.40;1.00;;;19.90;58.00;;;;;;6269461;28;20477;-71
2022/10/15 09:00:44;;;;;;;1.00;0.90;;;19.80;57.90;;;;;;6270848;28;20096;-72
2022/10/15 09:04:12;;;;;;;1.17;1.08;;;19.90;58.00;;;;;;6269930;28;20276;-71
2022/10/15 09:08:02;;;;;;;0.88;0.85;;;19.90;58.00;;;;;;6270520;28;20079;-71
2022/10/15 09:11:26;;;;;;;1.55;1.10;;;19.90;58.00;;;;;;6260627;28;20033;-71
2022/10/15 09:14:34;;;;;;;1.25;1.10;;;19.90;58.00;;;;;;6241424;28;20033;-71
2022/10/15 09:17:36;;;;;;;1.70;1.02;;;19.90;58.00;;;;;;6270202;28;20029;-71
2022/10/15 09:20:37;;;;;;;1.17;0.90;;;19.90;58.00;;;;;;6269203;28;20033;-71
2022/10/15 09:23:40;;;;;;;1.00;0.90;;;19.90;58.00;;;;;;6269802;28;20025;-71
2022/10/15 09:26:44;;;;;;;1.38;1.08;;;19.90;58.00;;;;;;6270205;28;20017;-71
2022/10/15 09:29:59;;;;;;;1.23;1.10;;;19.90;58.00;;;;;;6270073;28;20040;-71
2022/10/15 09:33:35;;;;;;;1.35;1.02;;;19.80;57.90;;;;;;6270058;28;20017;-71
2022/10/15 09:36:55;;;;;;;0.98;0.88;;;19.80;58.00;;;;;;6249423;28;20498;-70
2022/10/15 09:40:02;;;;;;;0.90;0.80;;;19.90;58.00;;;;;;6270078;28;20732;-69
2022/10/15 09:43:04;;;;;;;0.80;0.80;;;19.90;58.00;;;;;;6268499;28;20119;-71
2022/10/15 09:46:05;;;;;;;1.33;1.23;;;19.80;57.90;;;;;;6269649;28;20071;-70
2022/10/15 09:49:17;;;;;;;1.42;1.25;;;19.90;58.00;;;;;;6269987;28;20049;-70
2022/10/15 09:52:44;;;;;;;0.93;0.82;;;19.90;58.00;;;;;;6270849;28;20096;-69
2022/10/15 09:55:52;;;;;;;1.92;1.00;;;19.90;58.00;;;;;;6268663;28;20025;-66
2022/10/15 09:58:56;;;;;;;4.53;0.85;;;19.90;58.00;;;;;;6268781;28;20029;-67
2022/10/15 10:02:03;;;;;;;1.20;0.90;;;19.90;57.90;;;;;;6266120;28;20062;-67
2022/10/15 10:05:31;;;;;;;1.40;1.00;;;19.90;58.00;;;;;;6268319;28;20060;-67
2022/10/15 10:08:58;;;;;;;1.50;1.10;;;19.90;58.00;;;;;;6268244;28;20021;-67
2022/10/15 10:12:01;;;;;;;0.93;0.80;;;19.90;58.10;;;;;;6267532;28;20013;-67
2022/10/15 10:15:27;;;;;;;1.02;0.82;;;19.90;58.10;;;;;;6268362;28;20394;-65
2022/10/15 10:18:30;;;;;;;1.13;0.80;;;19.80;58.00;;;;;;6266493;28;20486;-67
2022/10/15 10:21:38;;;;;;;1.65;1.00;;;19.80;58.10;;;;;;6267979;28;20025;-67
2022/10/15 10:24:38;;;;;;;1.02;0.90;;;19.80;58.20;;;;;;6267882;28;20028;-67
2022/10/15 10:27:44;;;;;;;1.40;0.90;;;19.80;58.10;;;;;;6266544;28;20110;-67
2022/10/15 10:30:57;;;;;;;0.95;0.80;;;19.80;58.00;;;;;;6266602;28;20035;-67
2022/10/15 10:34:02;;;;;;;4.38;1.15;;;19.80;58.20;;;;;;6258467;28;20018;-67
2022/10/15 10:37:04;;;;;;;2.22;0.90;;;19.90;58.20;;;;;;6243154;28;20112;-67
2022/10/15 10:40:21;;;;;;;1.20;1.00;;;19.80;58.10;;;;;;6243193;28;20097;-67
2022/10/15 10:43:28;;;;;;;1.20;1.10;;;19.80;58.10;;;;;;6252503;28;20025;-67
2022/10/15 10:46:29;;;;;;;0.93;0.85;;;19.80;58.10;;;;;;6267595;28;20025;-67
2022/10/15 10:49:57;;;;;;;1.85;1.20;;;19.80;58.30;;;;;;6266383;28;20154;-67
2022/10/15 10:53:18;;;;;;;2.10;1.20;;;19.80;58.10;;;;;;6265452;28;20024;-67
2022/10/15 10:56:26;;;;;;;2.22;1.00;;;19.80;58.20;;;;;;6267308;28;20579;-67
2022/10/15 10:59:35;;;;;;;1.33;0.88;;;19.80;58.20;;;;;;6267186;28;20029;-67
2022/10/15 11:02:40;;;;;;;1.25;1.05;;;19.80;58.10;;;;;;6265747;28;20029;-67
2022/10/15 11:05:41;;;;;;;1.13;1.02;;;19.80;58.10;;;;;;6267022;28;20029;-66
2022/10/15 11:09:10;;;;;;;1.70;1.30;;;19.80;58.20;;;;;;6267386;28;20033;-66
2022/10/15 11:12:38;;;;;;;1.08;0.90;;;19.80;58.10;;;;;;6267217;28;20033;-65
2022/10/15 11:15:50;;;;;;;1.38;1.20;;;19.80;58.10;;;;;;6266993;28;20047;-67
2022/10/15 11:19:10;;;;;;;2.28;1.10;;;19.80;58.10;;;;;;6267171;28;20406;-67
2022/10/15 11:22:42;;;;;;;1.40;1.13;;;19.80;58.10;;;;;;6266730;28;20094;-67
2022/10/15 11:26:05;;;;;;;1.20;1.10;;;19.80;58.10;;;;;;6266624;28;20033;-67
2022/10/15 11:29:30;;;;;;;1.20;1.10;;;19.80;58.20;;;;;;6266608;28;20013;-67
2022/10/15 11:32:50;;;;;;;2.17;1.30;;;19.80;58.10;;;;;;6266324;28;20185;-67
2022/10/15 11:36:19;;;;;;;1.10;1.00;;;19.80;58.20;;;;;;6266616;28;20271;-67
2022/10/15 11:39:44;;;;;;;1.50;1.00;;;19.80;58.20;;;;;;6265857;28;20073;-67
2022/10/15 11:42:50;;;;;;;1.90;1.10;;;19.80;58.20;;;;;;6266565;28;20021;-66
2022/10/15 11:46:16;;;;;;;2.78;1.00;;;19.80;58.20;;;;;;6266273;28;20021;-66
2022/10/15 11:49:40;;;;;;;;;;;19.80;58.20;;;;;;6266483;28;20032;-68
2022/10/15 11:52:50;;;;;;;1.42;1.15;;;19.80;58.10;;;;;;6260661;28;19908;-67
2022/10/15 11:56:11;;;;;;;1.65;1.20;;;19.80;58.10;;;;;;6266021;28;20095;-67
2022/10/15 11:59:50;;;;;;;1.17;1.00;;;19.80;58.20;;;;;;6266661;28;20037;-66
2022/10/15 12:02:53;;;;;;;1.42;1.20;;;19.80;58.10;;;;;;6242849;28;20045;-67
2022/10/15 12:06:10;;;;;;;1.23;1.13;;;19.80;58.10;;;;;;6265833;28;20072;-67
2022/10/15 12:09:15;;;;;;;1.30;1.08;;;19.80;58.10;;;;;;6265913;28;20471;-67
2022/10/15 12:12:21;;;;;;;1.33;1.23;;;19.80;58.20;;;;;;6264242;28;20078;-66
2022/10/15 12:16:05;;;;;;;1.20;1.08;;;19.80;58.20;;;;;;6265692;28;20468;-67
2022/10/15 12:19:18;;;;;;;1.45;1.10;;;19.80;58.20;;;;;;6241078;28;20040;-66
2022/10/15 12:22:39;;;;;;;1.15;0.90;;;19.80;58.10;;;;;;6264322;28;20022;-67
2022/10/15 12:25:42;;;;;;;1.88;0.95;;;19.90;58.30;;;;;;6264776;28;20025;-67
2022/10/15 12:28:49;;;;;;;0.90;0.80;;;19.80;58.10;;;;;;6264406;28;20404;-67
2022/10/15 12:31:56;;;;;;;1.80;0.98;;;19.80;58.10;;;;;;6265531;28;20060;-67
2022/10/15 12:35:03;;;;;;;1.08;0.95;;;19.80;58.10;;;;;;6265406;28;20032;-67
2022/10/15 12:38:32;;;;;;;3.83;1.15;;;19.80;58.20;;;;;;6265870;28;20029;-67
2022/10/15 12:41:41;;;;;;;0.80;0.80;;;19.80;58.20;;;;;;6263292;28;20045;-68
2022/10/15 12:44:48;;;;;;;1.10;0.90;;;19.80;58.20;;;;;;6265334;28;20075;-67
2022/10/15 12:48:11;;;;;;;1.02;0.93;;;19.80;58.20;;;;;;6265174;28;20060;-67
2022/10/15 12:51:15;;;;;;;2.00;1.20;;;19.80;58.20;;;;;;6265347;28;20116;-67
2022/10/15 12:54:45;;;;;;;1.27;1.00;;;19.80;58.20;;;;;;6264127;28;20025;-67
2022/10/15 12:57:46;;;;;;;1.20;0.88;;;19.80;58.20;;;;;;6240512;28;20037;-66
2022/10/15 13:00:46;;;;;;;1.13;0.95;;;19.80;58.20;;;;;;6251109;28;20021;-67
2022/10/15 13:03:47;;;;;;;1.30;1.20;;;19.80;58.20;;;;;;6263882;28;20025;-66
2022/10/15 13:06:48;;;;;;;1.20;1.00;;;19.80;58.20;;;;;;6255646;28;20029;-66
2022/10/15 13:09:49;;;;;;;1.45;1.17;;;19.80;58.20;;;;;;6240189;28;20461;-66
2022/10/15 13:12:56;;;;;;;2.40;0.95;;;19.80;58.10;;;;;;6264065;28;20074;-67
2022/10/15 13:16:05;;;;;;;1.10;1.00;;;19.80;58.10;;;;;;6265738;28;20029;-67
2022/10/15 13:19:15;;;;;;;0.80;0.80;;;19.80;58.20;;;;;;6265214;28;20020;-66
2022/10/15 13:22:26;;;;;;;0.70;0.70;;;19.80;58.20;;;;;;6255678;28;20057;-67
2022/10/15 13:25:26;;;;;;;0.95;0.85;;;19.80;58.20;;;;;;6244664;28;20508;-67
2022/10/15 13:28:36;;;;;;;0.70;0.70;;;19.80;58.20;;;;;;6265065;28;20021;-67
2022/10/15 13:31:39;;;;;;;1.20;1.05;;;19.80;58.20;;;;;;6264977;28;20112;-67
2022/10/15 13:34:40;;;;;;;1.35;1.10;;;19.80;58.20;;;;;;6265829;28;20025;-65
2022/10/15 13:37:42;;;;;;;1.25;0.90;;;19.90;58.30;;;;;;6269496;28;20033;-67
2022/10/15 13:40:47;;;;;;;1.17;0.98;;;19.80;58.20;;;;;;6269122;28;20046;-67
2022/10/15 13:43:53;;;;;;;1.50;0.90;;;19.90;58.20;;;;;;6269480;28;20028;-67
2022/10/15 13:46:54;;;;;;;1.10;0.82;;;19.80;58.20;;;;;;6261885;28;20060;-67
2022/10/15 13:50:28;;;;;;;0.93;0.88;;;19.80;58.20;;;;;;6268085;28;20037;-67
2022/10/15 13:53:39;;;;;;;1.10;1.00;;;19.80;58.20;;;;;;6244247;28;20037;-67
2022/10/15 13:56:52;;;;;;;1.15;0.80;;;19.80;58.20;;;;;;6244163;28;20078;-67
2022/10/15 13:59:53;;;;;;;1.00;0.90;;;19.80;58.20;;;;;;6242842;28;20441;-67
2022/10/15 14:03:17;;;;;;;0.93;0.80;;;19.80;58.20;;;;;;6263660;28;20029;-67
2022/10/15 14:06:19;;;;;;;0.82;0.82;;;19.80;58.20;;;;;;6268347;28;20090;-67
2022/10/15 14:09:47;;;;;;;1.30;0.70;;;19.80;58.30;;;;;;6268493;28;20104;-67
2022/10/15 14:12:50;;;;;;;0.80;0.70;;;19.80;58.20;;;;;;6267298;28;20025;-67
2022/10/15 14:16:12;;;;;;;1.25;1.10;;;19.80;58.90;;;;;;6268187;28;20233;-67
2022/10/15 14:19:18;;;;;;;1.52;0.90;;;19.90;58.30;;;;;;6267066;28;20025;-66
2022/10/15 14:22:24;;;;;;;0.88;0.88;;;19.80;58.20;;;;;;6268110;28;20056;-67
2022/10/15 14:25:26;;;;;;;1.30;0.80;;;19.80;58.30;;;;;;6268101;28;20051;-65
2022/10/15 14:28:30;;;;;;;0.90;0.80;;;19.80;58.20;;;;;;6258619;28;20033;-67
2022/10/15 14:31:32;;;;;;;1.00;0.90;;;19.80;58.20;;;;;;6247639;28;20047;-67
2022/10/15 14:34:33;;;;;;;0.80;0.80;;;19.80;58.20;;;;;;6267826;28;20565;-67
2022/10/15 14:37:41;;;;;;;1.17;0.90;;;19.80;58.30;;;;;;6258423;28;20043;-67
2022/10/15 14:41:01;;;;;;;1.00;0.90;;;19.80;58.20;;;;;;6241814;28;20060;-67
2022/10/15 14:44:04;;;;;;;0.63;0.63;;;19.80;58.20;;;;;;6267110;28;20055;-67
2022/10/15 14:47:05;;;;;;;0.80;0.70;;;19.80;58.20;;;;;;6266803;28;20390;-67
2022/10/15 14:50:09;;;;;;;0.90;0.80;;;19.80;58.30;;;;;;6267539;28;20084;-66
2022/10/15 14:53:17;;;;;;;0.60;0.60;;;19.80;58.20;;;;;;6257610;28;20517;-67
2022/10/15 14:56:21;;;;;;;0.80;0.70;;;19.80;58.30;;;;;;6267722;28;20509;-67
2022/10/15 14:59:31;;;;;;;1.00;0.80;;;19.80;58.30;;;;;;6267319;28;20025;-67
2022/10/15 15:02:32;;;;;;;1.00;0.88;;;19.80;58.20;;;;;;6265948;28;20025;-67
2022/10/15 15:05:54;;;;;;;0.73;0.70;;;19.80;58.30;;;;;;6267228;28;20360;-67
2022/10/15 15:08:54;;;;;;;0.77;0.77;;;19.80;58.30;;;;;;6265744;28;20021;-67
2022/10/15 15:11:55;;;;;;;1.05;0.90;;;19.80;58.30;;;;;;6266956;28;20078;-67
2022/10/15 15:14:58;;;;;;;0.80;0.77;;;19.80;58.30;;;;;;6266990;28;20032;-67
2022/10/15 15:17:59;;;;;;;0.82;0.80;;;19.80;58.20;;;;;;6266243;28;20025;-67
2022/10/15 15:21:03;;;;;;;0.52;0.52;;;19.80;58.20;;;;;;6267060;28;20032;-67
2022/10/15 15:24:04;;;;;;;0.60;0.60;;;19.80;58.20;;;;;;6266992;28;20102;-67
2022/10/15 15:27:04;;;;;;;1.08;0.98;;;19.80;58.90;;;;;;6258571;28;20033;-67
2022/10/15 15:30:12;;;;;;;0.70;0.70;;;19.80;58.30;;;;;;6267449;28;20565;-67
2022/10/15 15:33:14;;;;;;;0.80;0.70;;;19.80;58.20;;;;;;6266323;28;20017;-67
2022/10/15 15:36:16;;;;;;;0.68;0.63;;;19.80;58.20;;;;;;6266251;28;20490;-67
2022/10/15 15:39:17;;;;;;;0.75;0.75;;;19.80;58.20;;;;;;6266320;28;20063;-67
2022/10/15 15:42:23;;;;;;;0.90;0.60;;;19.80;58.30;;;;;;6265827;28;20025;-66
2022/10/15 15:45:25;;;;;;;0.65;0.60;;;19.80;58.30;;;;;;6258027;28;20499;-67
2022/10/15 15:48:26;;;;;;;1.17;0.80;;;19.80;58.30;;;;;;6254989;28;20041;-67
2022/10/15 15:51:31;;;;;;;1.08;0.70;;;19.80;58.30;;;;;;6266012;28;20033;-67
2022/10/15 15:54:32;;;;;;;0.70;0.70;;;19.80;58.30;;;;;;6264741;28;20391;-66
2022/10/15 15:57:32;;;;;;;0.68;0.68;;;19.80;58.30;;;;;;6265603;28;20052;-67
2022/10/15 16:00:33;;;;;;;0.60;0.60;;;19.80;58.30;;;;;;6265398;28;20044;-67
2022/10/15 16:03:34;;;;;;;0.82;0.80;;;19.80;58.30;;;;;;6265457;28;20025;-66
2022/10/15 16:06:36;;;;;;;0.75;0.70;;;19.80;58.30;;;;;;6265958;28;20163;-66
2022/10/15 16:09:37;;;;;;;0.60;0.60;;;19.80;58.30;;;;;;6265856;28;20025;-67
2022/10/15 16:12:38;;;;;;;0.98;0.77;;;19.80;58.30;;;;;;6265638;28;20048;-67